Impacts TAF Board INFO
FOR SITUATIONAL AWARENESS. NOT TO BE USED FOR FLIGHT PLANNING PURPOSES.
IDs:

KFLL - Ft Lauderdale-Hollyw, FL, US

Issued at 2108 UTC 19 Jul 2018
Updated at 2306 UTC 19 Jul 2018
Potential Impact None Slight Moderate High
Time<<21/00Z 21/01Z 21/02Z 21/03Z 21/04Z 21/05Z 21/06Z 21/07Z 21/08Z 21/09Z 21/10Z 21/11Z 21/12Z
Type
VIS
CIG
Cover
FltCat
WX
WDir
WSpd
WGst

Raw TAF
KFLL 192108Z 1921/2024 14014KT P6SM VCSH SCT050 SCT150
  FM200000 19003KT P6SM SKC
  FM201600 15011KT P6SM SCT030


METAR Board
Radar Display
Forecast Discussion

FOR SITUATIONAL AWARENESS. NOT TO BE USED FOR FLIGHT PLANNING PURPOSES.